sensor_id;sensor_type;location;lat;lon;timestamp;P1;durP1;ratioP1;P2;durP2;ratioP2
1751;SDS011;873;47.696;8.068;2023-12-20T00:01:32;0.33;;;0.33;;
1751;SDS011;873;47.696;8.068;2023-12-20T00:03:58;0.20;;;0.20;;
1751;SDS011;873;47.696;8.068;2023-12-20T00:06:24;0.10;;;0.10;;
1751;SDS011;873;47.696;8.068;2023-12-20T00:08:51;0.13;;;0.13;;
1751;SDS011;873;47.696;8.068;2023-12-20T00:11:17;0.37;;;0.23;;
1751;SDS011;873;47.696;8.068;2023-12-20T00:13:42;0.80;;;0.40;;
1751;SDS011;873;47.696;8.068;2023-12-20T00:16:09;0.10;;;0.07;;
1751;SDS011;873;47.696;8.068;2023-12-20T00:18:34;0.50;;;0.30;;
1751;SDS011;873;47.696;8.068;2023-12-20T00:21:00;0.13;;;0.10;;
1751;SDS011;873;47.696;8.068;2023-12-20T00:23:26;0.10;;;0.00;;
1751;SDS011;873;47.696;8.068;2023-12-20T00:25:51;0.47;;;0.17;;
1751;SDS011;873;47.696;8.068;2023-12-20T00:28:17;0.10;;;0.10;;
1751;SDS011;873;47.696;8.068;2023-12-20T00:30:43;0.17;;;0.10;;
1751;SDS011;873;47.696;8.068;2023-12-20T00:33:11;0.53;;;0.27;;
1751;SDS011;873;47.696;8.068;2023-12-20T00:35:37;0.23;;;0.20;;
1751;SDS011;873;47.696;8.068;2023-12-20T00:38:02;0.20;;;0.20;;
1751;SDS011;873;47.696;8.068;2023-12-20T00:40:30;0.13;;;0.13;;
1751;SDS011;873;47.696;8.068;2023-12-20T00:42:56;0.33;;;0.20;;
1751;SDS011;873;47.696;8.068;2023-12-20T00:45:22;0.40;;;0.20;;
1751;SDS011;873;47.696;8.068;2023-12-20T00:47:47;0.10;;;0.10;;
1751;SDS011;873;47.696;8.068;2023-12-20T00:50:13;0.17;;;0.10;;
1751;SDS011;873;47.696;8.068;2023-12-20T00:52:39;0.30;;;0.30;;
1751;SDS011;873;47.696;8.068;2023-12-20T00:55:05;0.17;;;0.17;;
1751;SDS011;873;47.696;8.068;2023-12-20T00:57:31;0.07;;;0.07;;
1751;SDS011;873;47.696;8.068;2023-12-20T00:59:56;0.10;;;0.10;;
1751;SDS011;873;47.696;8.068;2023-12-20T01:02:22;0.80;;;0.33;;
1751;SDS011;873;47.696;8.068;2023-12-20T01:04:47;0.00;;;0.00;;
1751;SDS011;873;47.696;8.068;2023-12-20T01:07:13;0.20;;;0.20;;
1751;SDS011;873;47.696;8.068;2023-12-20T01:09:38;0.23;;;0.10;;
1751;SDS011;873;47.696;8.068;2023-12-20T01:12:04;0.10;;;0.10;;
1751;SDS011;873;47.696;8.068;2023-12-20T01:14:30;0.00;;;0.00;;
1751;SDS011;873;47.696;8.068;2023-12-20T01:16:56;1.13;;;0.40;;
1751;SDS011;873;47.696;8.068;2023-12-20T01:19:21;0.87;;;0.20;;
1751;SDS011;873;47.696;8.068;2023-12-20T01:21:49;0.10;;;0.10;;
1751;SDS011;873;47.696;8.068;2023-12-20T01:24:14;0.30;;;0.10;;
1751;SDS011;873;47.696;8.068;2023-12-20T01:26:40;0.00;;;0.00;;
1751;SDS011;873;47.696;8.068;2023-12-20T01:29:06;0.00;;;0.00;;
1751;SDS011;873;47.696;8.068;2023-12-20T01:31:31;0.00;;;0.00;;
1751;SDS011;873;47.696;8.068;2023-12-20T01:33:57;0.10;;;0.10;;
1751;SDS011;873;47.696;8.068;2023-12-20T01:36:22;0.10;;;0.00;;
1751;SDS011;873;47.696;8.068;2023-12-20T01:38:48;0.00;;;0.00;;
1751;SDS011;873;47.696;8.068;2023-12-20T01:41:14;0.00;;;0.00;;
1751;SDS011;873;47.696;8.068;2023-12-20T01:43:40;0.10;;;0.00;;
1751;SDS011;873;47.696;8.068;2023-12-20T01:46:06;0.10;;;0.10;;
1751;SDS011;873;47.696;8.068;2023-12-20T01:48:31;0.00;;;0.00;;
1751;SDS011;873;47.696;8.068;2023-12-20T01:50:58;0.00;;;0.00;;
1751;SDS011;873;47.696;8.068;2023-12-20T01:53:25;0.00;;;0.00;;
1751;SDS011;873;47.696;8.068;2023-12-20T01:55:50;0.00;;;0.00;;
1751;SDS011;873;47.696;8.068;2023-12-20T01:58:17;0.00;;;0.00;;
1751;SDS011;873;47.696;8.068;2023-12-20T02:00:44;0.10;;;0.00;;
1751;SDS011;873;47.696;8.068;2023-12-20T02:03:09;0.00;;;0.00;;
1751;SDS011;873;47.696;8.068;2023-12-20T02:05:35;0.00;;;0.00;;
1751;SDS011;873;47.696;8.068;2023-12-20T02:08:04;0.00;;;0.00;;
1751;SDS011;873;47.696;8.068;2023-12-20T02:10:31;0.00;;;0.00;;
1751;SDS011;873;47.696;8.068;2023-12-20T02:12:56;0.00;;;0.00;;
1751;SDS011;873;47.696;8.068;2023-12-20T02:15:22;0.00;;;0.00;;
1751;SDS011;873;47.696;8.068;2023-12-20T02:17:48;0.00;;;0.00;;
1751;SDS011;873;47.696;8.068;2023-12-20T02:20:14;0.00;;;0.00;;
1751;SDS011;873;47.696;8.068;2023-12-20T02:22:40;0.00;;;0.00;;
1751;SDS011;873;47.696;8.068;2023-12-20T02:25:06;0.00;;;0.00;;
1751;SDS011;873;47.696;8.068;2023-12-20T02:27:32;0.00;;;0.00;;
1751;SDS011;873;47.696;8.068;2023-12-20T02:29:57;0.00;;;0.00;;
1751;SDS011;873;47.696;8.068;2023-12-20T02:32:23;0.00;;;0.00;;
1751;SDS011;873;47.696;8.068;2023-12-20T02:34:53;0.00;;;0.00;;
1751;SDS011;873;47.696;8.068;2023-12-20T02:37:18;0.00;;;0.00;;
1751;SDS011;873;47.696;8.068;2023-12-20T02:39:44;0.00;;;0.00;;
1751;SDS011;873;47.696;8.068;2023-12-20T02:42:10;0.30;;;0.10;;
1751;SDS011;873;47.696;8.068;2023-12-20T02:44:36;0.00;;;0.00;;
1751;SDS011;873;47.696;8.068;2023-12-20T02:47:02;0.00;;;0.00;;
1751;SDS011;873;47.696;8.068;2023-12-20T02:49:28;0.00;;;0.00;;
1751;SDS011;873;47.696;8.068;2023-12-20T02:51:53;0.00;;;0.00;;
1751;SDS011;873;47.696;8.068;2023-12-20T02:54:19;0.00;;;0.00;;
1751;SDS011;873;47.696;8.068;2023-12-20T02:56:45;0.00;;;0.00;;
1751;SDS011;873;47.696;8.068;2023-12-20T02:59:11;0.00;;;0.00;;
1751;SDS011;873;47.696;8.068;2023-12-20T03:01:41;0.00;;;0.00;;
1751;SDS011;873;47.696;8.068;2023-12-20T03:04:08;0.00;;;0.00;;
1751;SDS011;873;47.696;8.068;2023-12-20T03:06:34;0.00;;;0.00;;
1751;SDS011;873;47.696;8.068;2023-12-20T03:09:00;0.00;;;0.00;;
1751;SDS011;873;47.696;8.068;2023-12-20T03:11:28;0.00;;;0.00;;
1751;SDS011;873;47.696;8.068;2023-12-20T03:13:54;0.00;;;0.00;;
1751;SDS011;873;47.696;8.068;2023-12-20T03:16:20;0.00;;;0.00;;
1751;SDS011;873;47.696;8.068;2023-12-20T03:18:46;0.00;;;0.00;;
1751;SDS011;873;47.696;8.068;2023-12-20T03:21:12;0.00;;;0.00;;
1751;SDS011;873;47.696;8.068;2023-12-20T03:23:38;0.00;;;0.00;;
1751;SDS011;873;47.696;8.068;2023-12-20T03:26:08;0.00;;;0.00;;
1751;SDS011;873;47.696;8.068;2023-12-20T03:28:34;0.00;;;0.00;;
1751;SDS011;873;47.696;8.068;2023-12-20T03:31:01;0.00;;;0.00;;
1751;SDS011;873;47.696;8.068;2023-12-20T03:33:27;0.00;;;0.00;;
1751;SDS011;873;47.696;8.068;2023-12-20T03:35:53;0.03;;;0.00;;
1751;SDS011;873;47.696;8.068;2023-12-20T03:38:19;0.00;;;0.00;;
1751;SDS011;873;47.696;8.068;2023-12-20T03:40:45;0.00;;;0.00;;
1751;SDS011;873;47.696;8.068;2023-12-20T03:43:10;0.00;;;0.00;;
1751;SDS011;873;47.696;8.068;2023-12-20T03:45:36;0.00;;;0.00;;
1751;SDS011;873;47.696;8.068;2023-12-20T03:48:02;0.00;;;0.00;;
1751;SDS011;873;47.696;8.068;2023-12-20T03:50:28;0.00;;;0.00;;
1751;SDS011;873;47.696;8.068;2023-12-20T03:52:54;0.00;;;0.00;;
1751;SDS011;873;47.696;8.068;2023-12-20T03:55:19;0.10;;;0.03;;
1751;SDS011;873;47.696;8.068;2023-12-20T03:57:45;0.00;;;0.00;;
1751;SDS011;873;47.696;8.068;2023-12-20T04:00:11;0.00;;;0.00;;
1751;SDS011;873;47.696;8.068;2023-12-20T04:02:37;0.00;;;0.00;;
1751;SDS011;873;47.696;8.068;2023-12-20T04:05:03;0.00;;;0.00;;
1751;SDS011;873;47.696;8.068;2023-12-20T04:07:30;0.00;;;0.00;;
1751;SDS011;873;47.696;8.068;2023-12-20T04:09:56;0.00;;;0.00;;
1751;SDS011;873;47.696;8.068;2023-12-20T04:12:21;0.00;;;0.00;;
1751;SDS011;873;47.696;8.068;2023-12-20T04:14:47;0.00;;;0.00;;
1751;SDS011;873;47.696;8.068;2023-12-20T04:17:13;0.00;;;0.00;;
1751;SDS011;873;47.696;8.068;2023-12-20T04:19:41;0.00;;;0.00;;
1751;SDS011;873;47.696;8.068;2023-12-20T04:22:06;0.00;;;0.00;;
1751;SDS011;873;47.696;8.068;2023-12-20T04:24:35;0.00;;;0.00;;
1751;SDS011;873;47.696;8.068;2023-12-20T04:27:01;0.00;;;0.00;;
1751;SDS011;873;47.696;8.068;2023-12-20T04:29:27;0.00;;;0.00;;
1751;SDS011;873;47.696;8.068;2023-12-20T04:31:52;0.00;;;0.00;;
1751;SDS011;873;47.696;8.068;2023-12-20T04:34:18;0.10;;;0.10;;
1751;SDS011;873;47.696;8.068;2023-12-20T04:36:44;0.00;;;0.00;;
1751;SDS011;873;47.696;8.068;2023-12-20T04:39:09;0.00;;;0.00;;
1751;SDS011;873;47.696;8.068;2023-12-20T04:41:36;0.00;;;0.00;;
1751;SDS011;873;47.696;8.068;2023-12-20T04:44:02;0.13;;;0.10;;
1751;SDS011;873;47.696;8.068;2023-12-20T04:46:27;0.70;;;0.00;;
1751;SDS011;873;47.696;8.068;2023-12-20T04:48:53;0.00;;;0.00;;
1751;SDS011;873;47.696;8.068;2023-12-20T04:51:19;0.00;;;0.00;;
1751;SDS011;873;47.696;8.068;2023-12-20T04:53:45;0.00;;;0.00;;
1751;SDS011;873;47.696;8.068;2023-12-20T04:56:11;0.00;;;0.00;;
1751;SDS011;873;47.696;8.068;2023-12-20T04:58:37;0.00;;;0.00;;
1751;SDS011;873;47.696;8.068;2023-12-20T05:01:03;0.10;;;0.10;;
1751;SDS011;873;47.696;8.068;2023-12-20T05:03:31;0.10;;;0.00;;
1751;SDS011;873;47.696;8.068;2023-12-20T05:05:56;0.10;;;0.10;;
1751;SDS011;873;47.696;8.068;2023-12-20T05:08:22;0.00;;;0.00;;
1751;SDS011;873;47.696;8.068;2023-12-20T05:10:48;0.80;;;0.10;;
1751;SDS011;873;47.696;8.068;2023-12-20T05:13:13;0.07;;;0.00;;
1751;SDS011;873;47.696;8.068;2023-12-20T05:15:39;0.40;;;0.10;;
1751;SDS011;873;47.696;8.068;2023-12-20T05:18:05;1.93;;;0.20;;
1751;SDS011;873;47.696;8.068;2023-12-20T05:20:31;3.93;;;0.67;;
1751;SDS011;873;47.696;8.068;2023-12-20T05:22:56;1.17;;;0.10;;
1751;SDS011;873;47.696;8.068;2023-12-20T05:25:22;2.87;;;0.53;;
1751;SDS011;873;47.696;8.068;2023-12-20T05:27:48;2.57;;;0.20;;
1751;SDS011;873;47.696;8.068;2023-12-20T05:30:13;0.00;;;0.00;;
1751;SDS011;873;47.696;8.068;2023-12-20T05:32:39;0.00;;;0.00;;
1751;SDS011;873;47.696;8.068;2023-12-20T05:35:05;0.20;;;0.00;;
1751;SDS011;873;47.696;8.068;2023-12-20T05:37:31;0.20;;;0.10;;
1751;SDS011;873;47.696;8.068;2023-12-20T05:39:56;0.00;;;0.00;;
1751;SDS011;873;47.696;8.068;2023-12-20T05:42:22;0.00;;;0.00;;
1751;SDS011;873;47.696;8.068;2023-12-20T05:44:48;0.10;;;0.00;;
1751;SDS011;873;47.696;8.068;2023-12-20T05:47:13;0.17;;;0.17;;
1751;SDS011;873;47.696;8.068;2023-12-20T05:49:39;0.00;;;0.00;;
1751;SDS011;873;47.696;8.068;2023-12-20T05:52:04;0.10;;;0.10;;
1751;SDS011;873;47.696;8.068;2023-12-20T05:54:30;0.10;;;0.10;;
1751;SDS011;873;47.696;8.068;2023-12-20T05:56:56;0.10;;;0.10;;
1751;SDS011;873;47.696;8.068;2023-12-20T05:59:22;0.20;;;0.13;;
1751;SDS011;873;47.696;8.068;2023-12-20T06:01:47;0.00;;;0.00;;
1751;SDS011;873;47.696;8.068;2023-12-20T06:04:13;2.07;;;0.10;;
1751;SDS011;873;47.696;8.068;2023-12-20T06:06:42;0.20;;;0.20;;
1751;SDS011;873;47.696;8.068;2023-12-20T06:09:07;0.83;;;0.10;;
1751;SDS011;873;47.696;8.068;2023-12-20T06:11:33;0.00;;;0.00;;
1751;SDS011;873;47.696;8.068;2023-12-20T06:13:59;2.93;;;0.10;;
1751;SDS011;873;47.696;8.068;2023-12-20T06:16:24;0.10;;;0.10;;
1751;SDS011;873;47.696;8.068;2023-12-20T06:18:50;0.03;;;0.00;;
1751;SDS011;873;47.696;8.068;2023-12-20T06:21:16;0.10;;;0.10;;
1751;SDS011;873;47.696;8.068;2023-12-20T06:23:41;0.77;;;0.03;;
1751;SDS011;873;47.696;8.068;2023-12-20T06:26:07;0.33;;;0.10;;
1751;SDS011;873;47.696;8.068;2023-12-20T06:28:33;0.07;;;0.00;;
1751;SDS011;873;47.696;8.068;2023-12-20T06:30:59;0.27;;;0.10;;
1751;SDS011;873;47.696;8.068;2023-12-20T06:33:26;0.00;;;0.00;;
1751;SDS011;873;47.696;8.068;2023-12-20T06:35:52;0.00;;;0.00;;
1751;SDS011;873;47.696;8.068;2023-12-20T06:38:17;0.00;;;0.00;;
1751;SDS011;873;47.696;8.068;2023-12-20T06:40:43;0.00;;;0.00;;
1751;SDS011;873;47.696;8.068;2023-12-20T06:43:10;0.00;;;0.00;;
1751;SDS011;873;47.696;8.068;2023-12-20T06:45:35;0.00;;;0.00;;
1751;SDS011;873;47.696;8.068;2023-12-20T06:48:01;0.00;;;0.00;;
1751;SDS011;873;47.696;8.068;2023-12-20T06:50:26;0.07;;;0.07;;
1751;SDS011;873;47.696;8.068;2023-12-20T06:52:52;0.17;;;0.10;;
1751;SDS011;873;47.696;8.068;2023-12-20T06:55:18;0.00;;;0.00;;
1751;SDS011;873;47.696;8.068;2023-12-20T06:57:43;0.00;;;0.00;;
1751;SDS011;873;47.696;8.068;2023-12-20T07:00:10;0.00;;;0.00;;
1751;SDS011;873;47.696;8.068;2023-12-20T07:02:36;0.00;;;0.00;;
1751;SDS011;873;47.696;8.068;2023-12-20T07:05:02;0.00;;;0.00;;
1751;SDS011;873;47.696;8.068;2023-12-20T07:07:28;0.00;;;0.00;;
1751;SDS011;873;47.696;8.068;2023-12-20T07:09:54;0.00;;;0.00;;
1751;SDS011;873;47.696;8.068;2023-12-20T07:12:20;0.00;;;0.00;;
1751;SDS011;873;47.696;8.068;2023-12-20T07:14:46;0.00;;;0.00;;
1751;SDS011;873;47.696;8.068;2023-12-20T07:17:11;0.00;;;0.00;;
1751;SDS011;873;47.696;8.068;2023-12-20T07:19:41;0.30;;;0.10;;
1751;SDS011;873;47.696;8.068;2023-12-20T07:22:07;0.00;;;0.00;;
1751;SDS011;873;47.696;8.068;2023-12-20T07:24:33;0.10;;;0.10;;
1751;SDS011;873;47.696;8.068;2023-12-20T07:26:59;0.00;;;0.00;;
1751;SDS011;873;47.696;8.068;2023-12-20T07:29:25;0.00;;;0.00;;
1751;SDS011;873;47.696;8.068;2023-12-20T07:31:52;0.10;;;0.10;;
1751;SDS011;873;47.696;8.068;2023-12-20T07:34:19;0.10;;;0.10;;
1751;SDS011;873;47.696;8.068;2023-12-20T07:36:45;0.20;;;0.07;;
1751;SDS011;873;47.696;8.068;2023-12-20T07:39:11;0.10;;;0.10;;
1751;SDS011;873;47.696;8.068;2023-12-20T07:41:36;0.00;;;0.00;;
1751;SDS011;873;47.696;8.068;2023-12-20T07:44:03;0.10;;;0.10;;
1751;SDS011;873;47.696;8.068;2023-12-20T07:46:30;0.00;;;0.00;;
1751;SDS011;873;47.696;8.068;2023-12-20T07:48:55;0.10;;;0.10;;
1751;SDS011;873;47.696;8.068;2023-12-20T07:51:21;0.10;;;0.10;;
1751;SDS011;873;47.696;8.068;2023-12-20T07:53:46;0.10;;;0.10;;
1751;SDS011;873;47.696;8.068;2023-12-20T07:56:18;0.00;;;0.00;;
1751;SDS011;873;47.696;8.068;2023-12-20T07:58:45;0.03;;;0.03;;
1751;SDS011;873;47.696;8.068;2023-12-20T08:01:15;0.00;;;0.00;;
1751;SDS011;873;47.696;8.068;2023-12-20T08:03:41;0.03;;;0.03;;
1751;SDS011;873;47.696;8.068;2023-12-20T08:06:07;0.00;;;0.00;;
1751;SDS011;873;47.696;8.068;2023-12-20T08:08:32;0.00;;;0.00;;
1751;SDS011;873;47.696;8.068;2023-12-20T08:10:58;0.00;;;0.00;;
1751;SDS011;873;47.696;8.068;2023-12-20T08:13:25;0.10;;;0.10;;
1751;SDS011;873;47.696;8.068;2023-12-20T08:15:51;0.00;;;0.00;;
1751;SDS011;873;47.696;8.068;2023-12-20T08:18:18;0.10;;;0.00;;
1751;SDS011;873;47.696;8.068;2023-12-20T08:20:44;0.10;;;0.10;;
1751;SDS011;873;47.696;8.068;2023-12-20T08:23:09;0.00;;;0.00;;
1751;SDS011;873;47.696;8.068;2023-12-20T08:25:35;0.00;;;0.00;;
1751;SDS011;873;47.696;8.068;2023-12-20T08:28:02;0.00;;;0.00;;
1751;SDS011;873;47.696;8.068;2023-12-20T08:30:28;0.47;;;0.20;;
1751;SDS011;873;47.696;8.068;2023-12-20T08:32:54;0.20;;;0.10;;
1751;SDS011;873;47.696;8.068;2023-12-20T08:35:20;0.10;;;0.07;;
1751;SDS011;873;47.696;8.068;2023-12-20T08:37:46;0.00;;;0.00;;
1751;SDS011;873;47.696;8.068;2023-12-20T08:40:12;0.20;;;0.20;;
1751;SDS011;873;47.696;8.068;2023-12-20T08:42:38;4.20;;;0.90;;
1751;SDS011;873;47.696;8.068;2023-12-20T08:45:04;1.17;;;0.37;;
1751;SDS011;873;47.696;8.068;2023-12-20T08:47:30;0.43;;;0.40;;
1751;SDS011;873;47.696;8.068;2023-12-20T08:49:55;0.17;;;0.17;;
1751;SDS011;873;47.696;8.068;2023-12-20T08:52:23;3.07;;;0.63;;
1751;SDS011;873;47.696;8.068;2023-12-20T08:54:49;0.20;;;0.20;;
1751;SDS011;873;47.696;8.068;2023-12-20T08:57:22;0.10;;;0.10;;
1751;SDS011;873;47.696;8.068;2023-12-20T08:59:50;0.20;;;0.20;;
1751;SDS011;873;47.696;8.068;2023-12-20T09:02:16;0.40;;;0.40;;
1751;SDS011;873;47.696;8.068;2023-12-20T09:04:42;0.20;;;0.20;;
1751;SDS011;873;47.696;8.068;2023-12-20T09:07:20;0.03;;;0.03;;
1751;SDS011;873;47.696;8.068;2023-12-20T09:09:47;0.10;;;0.10;;
1751;SDS011;873;47.696;8.068;2023-12-20T09:12:13;0.23;;;0.20;;
1751;SDS011;873;47.696;8.068;2023-12-20T09:14:38;0.37;;;0.23;;
1751;SDS011;873;47.696;8.068;2023-12-20T09:17:04;0.27;;;0.27;;
1751;SDS011;873;47.696;8.068;2023-12-20T09:19:29;1.37;;;0.23;;
1751;SDS011;873;47.696;8.068;2023-12-20T09:21:55;0.23;;;0.20;;
1751;SDS011;873;47.696;8.068;2023-12-20T09:24:21;0.40;;;0.20;;
1751;SDS011;873;47.696;8.068;2023-12-20T09:26:46;0.10;;;0.10;;
1751;SDS011;873;47.696;8.068;2023-12-20T09:29:12;0.20;;;0.17;;
1751;SDS011;873;47.696;8.068;2023-12-20T09:31:40;0.37;;;0.20;;
1751;SDS011;873;47.696;8.068;2023-12-20T09:34:08;0.20;;;0.20;;
1751;SDS011;873;47.696;8.068;2023-12-20T09:36:34;0.20;;;0.20;;
1751;SDS011;873;47.696;8.068;2023-12-20T09:39:01;0.10;;;0.10;;
1751;SDS011;873;47.696;8.068;2023-12-20T09:41:28;0.20;;;0.13;;
1751;SDS011;873;47.696;8.068;2023-12-20T09:43:54;0.30;;;0.30;;
1751;SDS011;873;47.696;8.068;2023-12-20T09:46:21;0.10;;;0.10;;
1751;SDS011;873;47.696;8.068;2023-12-20T09:48:49;0.20;;;0.20;;
1751;SDS011;873;47.696;8.068;2023-12-20T09:51:15;0.30;;;0.20;;
1751;SDS011;873;47.696;8.068;2023-12-20T09:53:41;0.10;;;0.10;;
1751;SDS011;873;47.696;8.068;2023-12-20T09:56:08;0.27;;;0.20;;
1751;SDS011;873;47.696;8.068;2023-12-20T09:58:36;0.20;;;0.20;;
1751;SDS011;873;47.696;8.068;2023-12-20T10:01:02;0.20;;;0.20;;
1751;SDS011;873;47.696;8.068;2023-12-20T10:03:28;0.10;;;0.10;;
1751;SDS011;873;47.696;8.068;2023-12-20T10:05:54;0.27;;;0.10;;
1751;SDS011;873;47.696;8.068;2023-12-20T10:08:22;0.10;;;0.10;;
1751;SDS011;873;47.696;8.068;2023-12-20T10:10:49;0.33;;;0.20;;
1751;SDS011;873;47.696;8.068;2023-12-20T10:13:15;0.30;;;0.30;;
1751;SDS011;873;47.696;8.068;2023-12-20T10:15:41;3.20;;;0.33;;
1751;SDS011;873;47.696;8.068;2023-12-20T10:18:06;0.30;;;0.30;;
1751;SDS011;873;47.696;8.068;2023-12-20T10:20:32;7.30;;;0.60;;
1751;SDS011;873;47.696;8.068;2023-12-20T10:22:59;8.30;;;0.80;;
1751;SDS011;873;47.696;8.068;2023-12-20T10:25:25;0.67;;;0.30;;
1751;SDS011;873;47.696;8.068;2023-12-20T10:30:37;5.77;;;0.40;;
1751;SDS011;873;47.696;8.068;2023-12-20T10:33:02;2.00;;;0.70;;
1751;SDS011;873;47.696;8.068;2023-12-20T10:35:28;9.13;;;0.97;;
1751;SDS011;873;47.696;8.068;2023-12-20T10:37:55;0.80;;;0.37;;
1751;SDS011;873;47.696;8.068;2023-12-20T10:40:23;1.23;;;0.50;;
1751;SDS011;873;47.696;8.068;2023-12-20T10:42:50;6.97;;;0.80;;
1751;SDS011;873;47.696;8.068;2023-12-20T10:45:16;0.83;;;0.53;;
1751;SDS011;873;47.696;8.068;2023-12-20T10:47:46;0.30;;;0.30;;
1751;SDS011;873;47.696;8.068;2023-12-20T10:50:12;0.90;;;0.33;;
1751;SDS011;873;47.696;8.068;2023-12-20T10:52:37;0.40;;;0.30;;
1751;SDS011;873;47.696;8.068;2023-12-20T10:55:04;0.40;;;0.40;;
1751;SDS011;873;47.696;8.068;2023-12-20T10:57:30;0.50;;;0.50;;
1751;SDS011;873;47.696;8.068;2023-12-20T10:59:55;0.40;;;0.30;;
1751;SDS011;873;47.696;8.068;2023-12-20T11:02:31;0.60;;;0.50;;
1751;SDS011;873;47.696;8.068;2023-12-20T11:05:06;0.40;;;0.40;;
1751;SDS011;873;47.696;8.068;2023-12-20T11:07:43;0.30;;;0.30;;
1751;SDS011;873;47.696;8.068;2023-12-20T11:10:19;0.47;;;0.43;;
1751;SDS011;873;47.696;8.068;2023-12-20T11:12:48;0.60;;;0.60;;
1751;SDS011;873;47.696;8.068;2023-12-20T11:15:21;0.33;;;0.30;;
1751;SDS011;873;47.696;8.068;2023-12-20T11:17:54;3.60;;;0.70;;
1751;SDS011;873;47.696;8.068;2023-12-20T11:20:23;0.70;;;0.50;;
1751;SDS011;873;47.696;8.068;2023-12-20T11:22:52;0.50;;;0.50;;
1751;SDS011;873;47.696;8.068;2023-12-20T11:25:19;0.63;;;0.47;;
1751;SDS011;873;47.696;8.068;2023-12-20T11:28:06;7.03;;;1.00;;
1751;SDS011;873;47.696;8.068;2023-12-20T11:33:21;1.00;;;0.70;;
1751;SDS011;873;47.696;8.068;2023-12-20T11:35:47;0.60;;;0.60;;
1751;SDS011;873;47.696;8.068;2023-12-20T11:38:13;0.67;;;0.53;;
1751;SDS011;873;47.696;8.068;2023-12-20T11:40:40;0.50;;;0.50;;
1751;SDS011;873;47.696;8.068;2023-12-20T11:43:06;0.90;;;0.60;;
1751;SDS011;873;47.696;8.068;2023-12-20T11:45:32;1.10;;;0.40;;
1751;SDS011;873;47.696;8.068;2023-12-20T11:48:00;0.93;;;0.57;;
1751;SDS011;873;47.696;8.068;2023-12-20T11:50:27;0.60;;;0.50;;
1751;SDS011;873;47.696;8.068;2023-12-20T11:52:53;0.40;;;0.30;;
1751;SDS011;873;47.696;8.068;2023-12-20T11:55:20;0.50;;;0.50;;
1751;SDS011;873;47.696;8.068;2023-12-20T11:57:47;1.33;;;0.70;;
1751;SDS011;873;47.696;8.068;2023-12-20T12:00:13;0.80;;;0.50;;
1751;SDS011;873;47.696;8.068;2023-12-20T12:02:40;2.33;;;0.40;;
1751;SDS011;873;47.696;8.068;2023-12-20T12:05:06;0.67;;;0.63;;
1751;SDS011;873;47.696;8.068;2023-12-20T12:07:33;0.70;;;0.67;;
1751;SDS011;873;47.696;8.068;2023-12-20T12:10:00;1.30;;;0.80;;
1751;SDS011;873;47.696;8.068;2023-12-20T12:12:25;1.03;;;0.50;;
1751;SDS011;873;47.696;8.068;2023-12-20T12:14:52;0.50;;;0.50;;
1751;SDS011;873;47.696;8.068;2023-12-20T12:17:18;0.80;;;0.70;;
1751;SDS011;873;47.696;8.068;2023-12-20T12:19:44;0.90;;;0.70;;
1751;SDS011;873;47.696;8.068;2023-12-20T12:22:10;0.87;;;0.73;;
1751;SDS011;873;47.696;8.068;2023-12-20T12:24:41;0.73;;;0.73;;
1751;SDS011;873;47.696;8.068;2023-12-20T12:27:08;1.00;;;0.90;;
1751;SDS011;873;47.696;8.068;2023-12-20T12:29:34;1.83;;;1.20;;
1751;SDS011;873;47.696;8.068;2023-12-20T12:32:01;1.00;;;0.80;;
1751;SDS011;873;47.696;8.068;2023-12-20T12:34:30;1.20;;;1.00;;
1751;SDS011;873;47.696;8.068;2023-12-20T12:36:56;0.83;;;0.60;;
1751;SDS011;873;47.696;8.068;2023-12-20T12:39:23;1.73;;;0.67;;
1751;SDS011;873;47.696;8.068;2023-12-20T12:41:52;0.97;;;0.60;;
1751;SDS011;873;47.696;8.068;2023-12-20T12:44:18;2.03;;;0.90;;
1751;SDS011;873;47.696;8.068;2023-12-20T12:46:45;0.83;;;0.63;;
1751;SDS011;873;47.696;8.068;2023-12-20T12:49:11;2.37;;;1.10;;
1751;SDS011;873;47.696;8.068;2023-12-20T12:51:36;1.20;;;1.10;;
1751;SDS011;873;47.696;8.068;2023-12-20T12:54:02;1.03;;;0.70;;
1751;SDS011;873;47.696;8.068;2023-12-20T12:56:28;2.00;;;1.07;;
1751;SDS011;873;47.696;8.068;2023-12-20T12:58:54;1.73;;;0.90;;
1751;SDS011;873;47.696;8.068;2023-12-20T13:01:20;2.90;;;1.23;;
1751;SDS011;873;47.696;8.068;2023-12-20T13:03:46;1.67;;;1.43;;
1751;SDS011;873;47.696;8.068;2023-12-20T13:06:12;2.23;;;0.93;;
1751;SDS011;873;47.696;8.068;2023-12-20T13:08:38;1.33;;;1.13;;
1751;SDS011;873;47.696;8.068;2023-12-20T13:11:04;1.50;;;1.30;;
1751;SDS011;873;47.696;8.068;2023-12-20T13:13:30;1.70;;;0.90;;
1751;SDS011;873;47.696;8.068;2023-12-20T13:15:56;1.13;;;0.83;;
1751;SDS011;873;47.696;8.068;2023-12-20T13:18:24;0.70;;;0.70;;
1751;SDS011;873;47.696;8.068;2023-12-20T13:20:50;1.20;;;0.90;;
1751;SDS011;873;47.696;8.068;2023-12-20T13:23:16;2.13;;;0.97;;
1751;SDS011;873;47.696;8.068;2023-12-20T13:25:43;1.00;;;0.80;;
1751;SDS011;873;47.696;8.068;2023-12-20T13:28:10;0.97;;;0.90;;
1751;SDS011;873;47.696;8.068;2023-12-20T13:30:36;0.93;;;0.80;;
1751;SDS011;873;47.696;8.068;2023-12-20T13:33:02;2.10;;;0.93;;
1751;SDS011;873;47.696;8.068;2023-12-20T13:35:27;1.50;;;0.77;;
1751;SDS011;873;47.696;8.068;2023-12-20T13:37:53;1.07;;;0.70;;
1751;SDS011;873;47.696;8.068;2023-12-20T13:40:19;4.10;;;1.00;;
1751;SDS011;873;47.696;8.068;2023-12-20T13:42:44;1.27;;;0.70;;
1751;SDS011;873;47.696;8.068;2023-12-20T13:45:10;2.97;;;1.00;;
1751;SDS011;873;47.696;8.068;2023-12-20T13:47:36;1.43;;;1.07;;
1751;SDS011;873;47.696;8.068;2023-12-20T13:50:02;1.40;;;0.90;;
1751;SDS011;873;47.696;8.068;2023-12-20T13:52:29;1.73;;;0.90;;
1751;SDS011;873;47.696;8.068;2023-12-20T13:54:54;0.70;;;0.70;;
1751;SDS011;873;47.696;8.068;2023-12-20T13:57:20;1.13;;;0.80;;
1751;SDS011;873;47.696;8.068;2023-12-20T13:59:46;1.37;;;0.90;;
1751;SDS011;873;47.696;8.068;2023-12-20T14:02:11;0.97;;;0.47;;
1751;SDS011;873;47.696;8.068;2023-12-20T14:04:37;1.23;;;0.80;;
1751;SDS011;873;47.696;8.068;2023-12-20T14:07:04;1.20;;;0.70;;
1751;SDS011;873;47.696;8.068;2023-12-20T14:09:32;0.93;;;0.87;;
1751;SDS011;873;47.696;8.068;2023-12-20T14:11:59;1.37;;;0.47;;
1751;SDS011;873;47.696;8.068;2023-12-20T14:14:24;0.63;;;0.43;;
1751;SDS011;873;47.696;8.068;2023-12-20T14:16:50;1.20;;;0.50;;
1751;SDS011;873;47.696;8.068;2023-12-20T14:19:16;5.20;;;1.07;;
1751;SDS011;873;47.696;8.068;2023-12-20T14:21:42;4.63;;;0.80;;
1751;SDS011;873;47.696;8.068;2023-12-20T14:24:11;2.83;;;0.70;;
1751;SDS011;873;47.696;8.068;2023-12-20T14:26:40;4.87;;;0.50;;
1751;SDS011;873;47.696;8.068;2023-12-20T14:29:06;5.67;;;0.70;;
1751;SDS011;873;47.696;8.068;2023-12-20T14:31:32;2.73;;;0.80;;
1751;SDS011;873;47.696;8.068;2023-12-20T14:33:58;0.70;;;0.50;;
1751;SDS011;873;47.696;8.068;2023-12-20T14:36:26;7.67;;;0.40;;
1751;SDS011;873;47.696;8.068;2023-12-20T14:38:51;5.30;;;0.43;;
1751;SDS011;873;47.696;8.068;2023-12-20T14:41:17;5.30;;;0.70;;
1751;SDS011;873;47.696;8.068;2023-12-20T14:43:44;2.37;;;0.70;;
1751;SDS011;873;47.696;8.068;2023-12-20T14:46:10;1.53;;;0.80;;
1751;SDS011;873;47.696;8.068;2023-12-20T14:48:36;2.03;;;0.83;;
1751;SDS011;873;47.696;8.068;2023-12-20T14:51:01;1.10;;;0.70;;
1751;SDS011;873;47.696;8.068;2023-12-20T14:53:27;2.33;;;0.90;;
1751;SDS011;873;47.696;8.068;2023-12-20T14:55:53;0.30;;;0.30;;
1751;SDS011;873;47.696;8.068;2023-12-20T14:58:20;4.67;;;1.13;;
1751;SDS011;873;47.696;8.068;2023-12-20T15:00:45;1.77;;;0.77;;
1751;SDS011;873;47.696;8.068;2023-12-20T15:03:11;1.20;;;0.73;;
1751;SDS011;873;47.696;8.068;2023-12-20T15:05:37;1.80;;;0.90;;
1751;SDS011;873;47.696;8.068;2023-12-20T15:08:03;1.93;;;0.40;;
1751;SDS011;873;47.696;8.068;2023-12-20T15:10:28;0.10;;;0.10;;
1751;SDS011;873;47.696;8.068;2023-12-20T15:12:55;3.10;;;0.60;;
1751;SDS011;873;47.696;8.068;2023-12-20T15:15:21;1.93;;;0.40;;
1751;SDS011;873;47.696;8.068;2023-12-20T15:17:47;1.50;;;0.33;;
1751;SDS011;873;47.696;8.068;2023-12-20T15:20:13;0.97;;;0.40;;
1751;SDS011;873;47.696;8.068;2023-12-20T15:22:39;2.53;;;0.97;;
1751;SDS011;873;47.696;8.068;2023-12-20T15:25:06;0.73;;;0.50;;
1751;SDS011;873;47.696;8.068;2023-12-20T15:27:33;2.23;;;0.87;;
1751;SDS011;873;47.696;8.068;2023-12-20T15:30:02;7.80;;;0.50;;